sensor_id;sensor_type;location;lat;lon;timestamp;temperature;humidity
73509;SHT30;61750;55.036;73.312;2022-07-15T00:01:34;18.11;88.98
73509;SHT30;61750;55.036;73.312;2022-07-15T00:04:01;18.13;88.99
73509;SHT30;61750;55.036;73.312;2022-07-15T00:06:27;18.19;88.82
73509;SHT30;61750;55.036;73.312;2022-07-15T00:08:53;18.21;88.82
73509;SHT30;61750;55.036;73.312;2022-07-15T00:11:20;18.25;88.84
73509;SHT30;61750;55.036;73.312;2022-07-15T00:13:48;18.31;88.89
73509;SHT30;61750;55.036;73.312;2022-07-15T00:16:14;18.38;88.64
73509;SHT30;61750;55.036;73.312;2022-07-15T00:18:41;18.48;88.26
73509;SHT30;61750;55.036;73.312;2022-07-15T00:21:17;18.57;87.84
73509;SHT30;61750;55.036;73.312;2022-07-15T00:23:43;18.59;87.44
73509;SHT30;61750;55.036;73.312;2022-07-15T00:26:11;18.67;87.64
73509;SHT30;61750;55.036;73.312;2022-07-15T00:28:37;18.70;87.28
73509;SHT30;61750;55.036;73.312;2022-07-15T00:31:03;18.77;87.35
73509;SHT30;61750;55.036;73.312;2022-07-15T00:33:29;18.82;86.63
73509;SHT30;61750;55.036;73.312;2022-07-15T00:36:00;18.89;86.35
73509;SHT30;61750;55.036;73.312;2022-07-15T00:38:27;18.95;86.35
73509;SHT30;61750;55.036;73.312;2022-07-15T00:40:53;19.04;86.26
73509;SHT30;61750;55.036;73.312;2022-07-15T00:43:19;19.11;86.24
73509;SHT30;61750;55.036;73.312;2022-07-15T00:45:52;19.18;85.57
73509;SHT30;61750;55.036;73.312;2022-07-15T00:48:24;19.24;85.41
73509;SHT30;61750;55.036;73.312;2022-07-15T00:50:50;19.31;85.04
73509;SHT30;61750;55.036;73.312;2022-07-15T00:53:21;19.35;84.48
73509;SHT30;61750;55.036;73.312;2022-07-15T00:55:59;19.46;84.60
73509;SHT30;61750;55.036;73.312;2022-07-15T00:58:29;19.50;84.13
73509;SHT30;61750;55.036;73.312;2022-07-15T01:00:58;19.57;84.41
73509;SHT30;61750;55.036;73.312;2022-07-15T01:03:35;19.67;83.74
73509;SHT30;61750;55.036;73.312;2022-07-15T01:06:11;19.74;82.94
73509;SHT30;61750;55.036;73.312;2022-07-15T01:08:37;19.86;83.17
73509;SHT30;61750;55.036;73.312;2022-07-15T01:11:04;19.96;82.81
73509;SHT30;61750;55.036;73.312;2022-07-15T01:13:31;20.11;81.61
73509;SHT30;61750;55.036;73.312;2022-07-15T01:15:57;20.18;81.76
73509;SHT30;61750;55.036;73.312;2022-07-15T01:18:24;20.35;81.21
73509;SHT30;61750;55.036;73.312;2022-07-15T01:21:00;20.36;80.32
73509;SHT30;61750;55.036;73.312;2022-07-15T01:23:27;20.36;80.45
73509;SHT30;61750;55.036;73.312;2022-07-15T01:26:22;20.39;79.73
73509;SHT30;61750;55.036;73.312;2022-07-15T01:28:49;20.39;80.67
73509;SHT30;61750;55.036;73.312;2022-07-15T01:31:16;20.43;80.01
73509;SHT30;61750;55.036;73.312;2022-07-15T01:33:43;20.52;79.76
73509;SHT30;61750;55.036;73.312;2022-07-15T01:36:10;20.56;78.59
73509;SHT30;61750;55.036;73.312;2022-07-15T01:38:39;20.60;78.60
73509;SHT30;61750;55.036;73.312;2022-07-15T01:41:07;20.65;78.34
73509;SHT30;61750;55.036;73.312;2022-07-15T01:43:33;20.73;79.18
73509;SHT30;61750;55.036;73.312;2022-07-15T01:45:59;20.75;77.88
73509;SHT30;61750;55.036;73.312;2022-07-15T01:48:34;20.77;77.62
73509;SHT30;61750;55.036;73.312;2022-07-15T01:51:56;20.77;78.34
73509;SHT30;61750;55.036;73.312;2022-07-15T01:54:23;20.72;79.24
73509;SHT30;61750;55.036;73.312;2022-07-15T01:56:52;20.70;78.99
73509;SHT30;61750;55.036;73.312;2022-07-15T01:59:19;20.62;78.78
73509;SHT30;61750;55.036;73.312;2022-07-15T02:01:49;20.56;78.71
73509;SHT30;61750;55.036;73.312;2022-07-15T02:04:18;20.56;78.93
73509;SHT30;61750;55.036;73.312;2022-07-15T02:06:45;20.62;79.16
73509;SHT30;61750;55.036;73.312;2022-07-15T02:09:13;20.69;78.25
73509;SHT30;61750;55.036;73.312;2022-07-15T02:11:43;20.77;78.77
73509;SHT30;61750;55.036;73.312;2022-07-15T02:14:11;20.86;79.74
73509;SHT30;61750;55.036;73.312;2022-07-15T02:16:39;20.90;78.90
73509;SHT30;61750;55.036;73.312;2022-07-15T02:19:09;20.89;78.77
73509;SHT30;61750;55.036;73.312;2022-07-15T02:21:36;20.91;78.39
73509;SHT30;61750;55.036;73.312;2022-07-15T02:24:03;20.93;78.20
73509;SHT30;61750;55.036;73.312;2022-07-15T02:26:30;20.94;78.72
73509;SHT30;61750;55.036;73.312;2022-07-15T02:28:57;20.94;78.30
73509;SHT30;61750;55.036;73.312;2022-07-15T02:31:27;20.97;78.10
73509;SHT30;61750;55.036;73.312;2022-07-15T02:33:56;21.11;78.25
73509;SHT30;61750;55.036;73.312;2022-07-15T02:36:26;21.18;78.37
73509;SHT30;61750;55.036;73.312;2022-07-15T02:38:52;21.24;77.45
73509;SHT30;61750;55.036;73.312;2022-07-15T02:41:19;21.30;78.30
73509;SHT30;61750;55.036;73.312;2022-07-15T02:43:47;21.35;77.15
73509;SHT30;61750;55.036;73.312;2022-07-15T02:46:14;21.48;77.61
73509;SHT30;61750;55.036;73.312;2022-07-15T02:48:43;21.50;77.25
73509;SHT30;61750;55.036;73.312;2022-07-15T02:51:11;21.59;75.94
73509;SHT30;61750;55.036;73.312;2022-07-15T02:53:37;21.65;76.75
73509;SHT30;61750;55.036;73.312;2022-07-15T02:56:09;21.74;75.83
73509;SHT30;61750;55.036;73.312;2022-07-15T02:58:35;21.75;75.54
73509;SHT30;61750;55.036;73.312;2022-07-15T03:01:02;21.88;75.83
73509;SHT30;61750;55.036;73.312;2022-07-15T03:03:31;21.96;75.53
73509;SHT30;61750;55.036;73.312;2022-07-15T03:06:02;21.98;75.00
73509;SHT30;61750;55.036;73.312;2022-07-15T03:08:28;22.09;75.09
73509;SHT30;61750;55.036;73.312;2022-07-15T03:10:59;22.12;74.78
73509;SHT30;61750;55.036;73.312;2022-07-15T03:13:25;22.09;76.33
73509;SHT30;61750;55.036;73.312;2022-07-15T03:15:52;22.22;75.62
73509;SHT30;61750;55.036;73.312;2022-07-15T03:18:18;22.39;74.01
73509;SHT30;61750;55.036;73.312;2022-07-15T03:20:47;22.67;73.27
73509;SHT30;61750;55.036;73.312;2022-07-15T03:23:23;22.70;73.51
73509;SHT30;61750;55.036;73.312;2022-07-15T03:25:52;22.81;74.78
73509;SHT30;61750;55.036;73.312;2022-07-15T03:28:19;22.81;72.34
73509;SHT30;61750;55.036;73.312;2022-07-15T03:30:54;22.74;72.74
73509;SHT30;61750;55.036;73.312;2022-07-15T03:33:20;22.66;73.94
73509;SHT30;61750;55.036;73.312;2022-07-15T03:35:46;22.66;73.97
73509;SHT30;61750;55.036;73.312;2022-07-15T03:38:16;22.84;74.20
73509;SHT30;61750;55.036;73.312;2022-07-15T03:40:42;22.89;73.45
73509;SHT30;61750;55.036;73.312;2022-07-15T03:43:16;22.87;73.68
73509;SHT30;61750;55.036;73.312;2022-07-15T03:45:47;22.96;73.92
73509;SHT30;61750;55.036;73.312;2022-07-15T03:48:16;23.08;72.95
73509;SHT30;61750;55.036;73.312;2022-07-15T03:50:42;23.27;72.78
73509;SHT30;61750;55.036;73.312;2022-07-15T03:53:09;23.41;72.89
73509;SHT30;61750;55.036;73.312;2022-07-15T03:55:35;23.71;71.42
73509;SHT30;61750;55.036;73.312;2022-07-15T03:58:16;23.85;70.66
73509;SHT30;61750;55.036;73.312;2022-07-15T04:00:43;23.94;70.91
73509;SHT30;61750;55.036;73.312;2022-07-15T04:03:16;23.98;70.31
73509;SHT30;61750;55.036;73.312;2022-07-15T04:05:43;23.82;71.06
73509;SHT30;61750;55.036;73.312;2022-07-15T04:08:16;24.09;71.46
73509;SHT30;61750;55.036;73.312;2022-07-15T04:10:42;24.22;70.66
73509;SHT30;61750;55.036;73.312;2022-07-15T04:13:16;24.17;69.65
73509;SHT30;61750;55.036;73.312;2022-07-15T04:15:45;24.12;70.82
73509;SHT30;61750;55.036;73.312;2022-07-15T04:18:16;23.96;70.39
73509;SHT30;61750;55.036;73.312;2022-07-15T04:20:42;23.79;71.84
73509;SHT30;61750;55.036;73.312;2022-07-15T04:23:09;23.78;71.25
73509;SHT30;61750;55.036;73.312;2022-07-15T04:25:35;23.82;70.78
73509;SHT30;61750;55.036;73.312;2022-07-15T04:28:16;23.96;71.51
73509;SHT30;61750;55.036;73.312;2022-07-15T04:30:42;24.02;70.84
73509;SHT30;61750;55.036;73.312;2022-07-15T04:33:16;24.22;69.81
73509;SHT30;61750;55.036;73.312;2022-07-15T04:35:43;24.16;69.32
73509;SHT30;61750;55.036;73.312;2022-07-15T04:38:16;24.23;69.35
73509;SHT30;61750;55.036;73.312;2022-07-15T04:40:43;24.17;68.91
73509;SHT30;61750;55.036;73.312;2022-07-15T04:43:16;24.09;70.55
73509;SHT30;61750;55.036;73.312;2022-07-15T04:45:54;24.43;68.65
73509;SHT30;61750;55.036;73.312;2022-07-15T04:48:21;24.33;68.60
73509;SHT30;61750;55.036;73.312;2022-07-15T04:51:17;24.55;67.74
73509;SHT30;61750;55.036;73.312;2022-07-15T04:53:44;24.70;67.45
73509;SHT30;61750;55.036;73.312;2022-07-15T04:56:21;24.91;67.48
73509;SHT30;61750;55.036;73.312;2022-07-15T04:59:00;24.87;66.62
73509;SHT30;61750;55.036;73.312;2022-07-15T05:01:27;24.53;66.56
73509;SHT30;61750;55.036;73.312;2022-07-15T05:03:54;24.40;69.19
73509;SHT30;61750;55.036;73.312;2022-07-15T05:06:24;24.44;68.55
73509;SHT30;61750;55.036;73.312;2022-07-15T05:08:51;24.52;69.05
73509;SHT30;61750;55.036;73.312;2022-07-15T05:11:17;24.39;68.89
73509;SHT30;61750;55.036;73.312;2022-07-15T05:13:45;24.35;69.72
73509;SHT30;61750;55.036;73.312;2022-07-15T05:16:11;24.55;69.38
73509;SHT30;61750;55.036;73.312;2022-07-15T05:18:37;24.79;65.99
73509;SHT30;61750;55.036;73.312;2022-07-15T05:21:03;24.83;66.13
73509;SHT30;61750;55.036;73.312;2022-07-15T05:28:21;24.53;66.88
73509;SHT30;61750;55.036;73.312;2022-07-15T05:30:59;24.64;68.37
73509;SHT30;61750;55.036;73.312;2022-07-15T05:35:44;24.57;67.98
73509;SHT30;61750;55.036;73.312;2022-07-15T05:38:54;24.63;67.65
73509;SHT30;61750;55.036;73.312;2022-07-15T05:41:21;24.55;66.71
73509;SHT30;61750;55.036;73.312;2022-07-15T05:43:47;24.29;68.33
73509;SHT30;61750;55.036;73.312;2022-07-15T05:46:51;24.46;67.52
73509;SHT30;61750;55.036;73.312;2022-07-15T05:49:27;24.47;68.48
73509;SHT30;61750;55.036;73.312;2022-07-15T05:52:01;24.63;66.88
73509;SHT30;61750;55.036;73.312;2022-07-15T05:54:27;24.53;67.51
73509;SHT30;61750;55.036;73.312;2022-07-15T05:56:53;24.41;67.66
73509;SHT30;61750;55.036;73.312;2022-07-15T05:59:22;24.41;68.62
73509;SHT30;61750;55.036;73.312;2022-07-15T06:01:58;24.44;67.95
73509;SHT30;61750;55.036;73.312;2022-07-15T06:04:35;24.17;67.89
73509;SHT30;61750;55.036;73.312;2022-07-15T06:07:05;24.08;68.79
73509;SHT30;61750;55.036;73.312;2022-07-15T06:09:31;24.02;68.84
73509;SHT30;61750;55.036;73.312;2022-07-15T06:12:08;24.06;69.50
73509;SHT30;61750;55.036;73.312;2022-07-15T06:14:35;24.29;68.71
73509;SHT30;61750;55.036;73.312;2022-07-15T06:17:07;24.53;66.10
73509;SHT30;61750;55.036;73.312;2022-07-15T06:19:33;24.63;66.31
73509;SHT30;61750;55.036;73.312;2022-07-15T06:22:00;24.76;66.41
73509;SHT30;61750;55.036;73.312;2022-07-15T06:24:38;25.31;64.36
73509;SHT30;61750;55.036;73.312;2022-07-15T06:27:05;25.57;64.95
73509;SHT30;61750;55.036;73.312;2022-07-15T06:29:31;25.46;63.67
73509;SHT30;61750;55.036;73.312;2022-07-15T06:31:58;24.97;65.02
73509;SHT30;61750;55.036;73.312;2022-07-15T06:34:25;24.77;66.79
73509;SHT30;61750;55.036;73.312;2022-07-15T06:36:51;24.39;67.77
73509;SHT30;61750;55.036;73.312;2022-07-15T06:39:17;24.17;69.33
73509;SHT30;61750;55.036;73.312;2022-07-15T06:41:51;24.12;69.60
73509;SHT30;61750;55.036;73.312;2022-07-15T06:44:17;24.10;68.15
73509;SHT30;61750;55.036;73.312;2022-07-15T06:46:53;24.01;68.60
73509;SHT30;61750;55.036;73.312;2022-07-15T06:49:29;23.95;67.76
73509;SHT30;61750;55.036;73.312;2022-07-15T06:51:55;23.89;68.33
73509;SHT30;61750;55.036;73.312;2022-07-15T06:54:22;24.09;68.89
73509;SHT30;61750;55.036;73.312;2022-07-15T06:56:51;23.99;67.17
73509;SHT30;61750;55.036;73.312;2022-07-15T06:59:17;24.01;66.76
73509;SHT30;61750;55.036;73.312;2022-07-15T07:01:51;23.89;67.92
73509;SHT30;61750;55.036;73.312;2022-07-15T07:04:21;23.92;66.65
73509;SHT30;61750;55.036;73.312;2022-07-15T07:06:51;23.98;67.56
73509;SHT30;61750;55.036;73.312;2022-07-15T07:09:27;23.88;68.05
73509;SHT30;61750;55.036;73.312;2022-07-15T07:11:58;24.10;67.41
73509;SHT30;61750;55.036;73.312;2022-07-15T07:14:24;24.37;66.85
73509;SHT30;61750;55.036;73.312;2022-07-15T07:16:51;24.63;64.18
73509;SHT30;61750;55.036;73.312;2022-07-15T07:19:17;24.92;63.83
73509;SHT30;61750;55.036;73.312;2022-07-15T07:21:51;25.21;62.76
73509;SHT30;61750;55.036;73.312;2022-07-15T07:24:27;25.55;61.76
73509;SHT30;61750;55.036;73.312;2022-07-15T07:26:53;25.57;62.77
73509;SHT30;61750;55.036;73.312;2022-07-15T07:29:19;25.38;61.35
73509;SHT30;61750;55.036;73.312;2022-07-15T07:31:51;25.31;61.80
73509;SHT30;61750;55.036;73.312;2022-07-15T07:34:17;25.46;62.81
73509;SHT30;61750;55.036;73.312;2022-07-15T07:36:51;25.81;61.03
73509;SHT30;61750;55.036;73.312;2022-07-15T07:39:17;25.96;62.13
73509;SHT30;61750;55.036;73.312;2022-07-15T07:41:51;25.71;63.13
73509;SHT30;61750;55.036;73.312;2022-07-15T07:44:20;25.54;63.65
73509;SHT30;61750;55.036;73.312;2022-07-15T07:46:47;26.00;63.89
73509;SHT30;61750;55.036;73.312;2022-07-15T07:49:13;26.32;63.05
73509;SHT30;61750;55.036;73.312;2022-07-15T07:51:51;26.44;59.26
73509;SHT30;61750;55.036;73.312;2022-07-15T07:54:18;26.51;59.41
73509;SHT30;61750;55.036;73.312;2022-07-15T07:56:51;26.50;59.33
73509;SHT30;61750;55.036;73.312;2022-07-15T07:59:17;26.54;57.86
73509;SHT30;61750;55.036;73.312;2022-07-15T08:01:51;26.70;60.75
73509;SHT30;61750;55.036;73.312;2022-07-15T08:04:17;26.69;57.06
73509;SHT30;61750;55.036;73.312;2022-07-15T08:06:51;26.81;59.91
73509;SHT30;61750;55.036;73.312;2022-07-15T08:09:18;26.86;54.22
73509;SHT30;61750;55.036;73.312;2022-07-15T08:11:51;27.03;56.43
73509;SHT30;61750;55.036;73.312;2022-07-15T08:14:17;27.34;55.29
73509;SHT30;61750;55.036;73.312;2022-07-15T08:16:44;27.08;53.62
73509;SHT30;61750;55.036;73.312;2022-07-15T08:19:11;27.31;53.89
73509;SHT30;61750;55.036;73.312;2022-07-15T08:21:51;27.70;52.80
73509;SHT30;61750;55.036;73.312;2022-07-15T08:24:27;28.03;53.00
73509;SHT30;61750;55.036;73.312;2022-07-15T08:27:04;28.08;53.96
73509;SHT30;61750;55.036;73.312;2022-07-15T08:29:30;27.95;53.31
73509;SHT30;61750;55.036;73.312;2022-07-15T08:32:06;28.74;52.35
73509;SHT30;61750;55.036;73.312;2022-07-15T08:34:32;28.84;52.13
73509;SHT30;61750;55.036;73.312;2022-07-15T08:36:59;28.75;51.35
73509;SHT30;61750;55.036;73.312;2022-07-15T08:39:25;28.59;51.93
73509;SHT30;61750;55.036;73.312;2022-07-15T08:42:02;28.83;53.12
73509;SHT30;61750;55.036;73.312;2022-07-15T08:44:28;28.94;49.06
73509;SHT30;61750;55.036;73.312;2022-07-15T08:47:01;29.42;49.62
73509;SHT30;61750;55.036;73.312;2022-07-15T08:49:33;29.45;46.88
73509;SHT30;61750;55.036;73.312;2022-07-15T08:52:06;29.63;49.56
73509;SHT30;61750;55.036;73.312;2022-07-15T08:54:42;29.78;45.64
73509;SHT30;61750;55.036;73.312;2022-07-15T08:57:09;29.48;47.78
73509;SHT30;61750;55.036;73.312;2022-07-15T08:59:36;29.88;50.63
73509;SHT30;61750;55.036;73.312;2022-07-15T09:02:02;30.29;52.47
73509;SHT30;61750;55.036;73.312;2022-07-15T09:13:28;30.53;47.11
73509;SHT30;61750;55.036;73.312;2022-07-15T09:15:57;30.59;44.78
73509;SHT30;61750;55.036;73.312;2022-07-15T09:18:35;30.96;45.07
73509;SHT30;61750;55.036;73.312;2022-07-15T09:21:23;30.33;45.99
73509;SHT30;61750;55.036;73.312;2022-07-15T09:23:52;29.63;47.17
73509;SHT30;61750;55.036;73.312;2022-07-15T09:26:51;29.76;46.59
73509;SHT30;61750;55.036;73.312;2022-07-15T09:29:17;30.44;47.02
73509;SHT30;61750;55.036;73.312;2022-07-15T09:32:01;30.50;43.96
73509;SHT30;61750;55.036;73.312;2022-07-15T09:35:04;30.45;44.22
73509;SHT30;61750;55.036;73.312;2022-07-15T09:37:58;30.24;44.30
73509;SHT30;61750;55.036;73.312;2022-07-15T09:40:28;30.47;42.16
73509;SHT30;61750;55.036;73.312;2022-07-15T09:43:04;30.90;43.33
73509;SHT30;61750;55.036;73.312;2022-07-15T09:45:35;30.78;43.37
73509;SHT30;61750;55.036;73.312;2022-07-15T09:48:12;31.52;43.66
73509;SHT30;61750;55.036;73.312;2022-07-15T11:57:02;37.84;34.98
73509;SHT30;61750;55.036;73.312;2022-07-15T12:00:28;35.72;37.34
